sensor_id;sensor_type;location;lat;lon;timestamp;P1;durP1;ratioP1;P2;durP2;ratioP2
8663;SDS011;4369;47.842;13.096;2023-02-26T00:01:19;11.20;;;7.40;;
8663;SDS011;4369;47.842;13.096;2023-02-26T00:03:47;9.63;;;7.40;;
8663;SDS011;4369;47.842;13.096;2023-02-26T00:06:14;9.30;;;7.17;;
8663;SDS011;4369;47.842;13.096;2023-02-26T00:08:41;9.63;;;6.50;;
8663;SDS011;4369;47.842;13.096;2023-02-26T00:11:08;14.47;;;7.17;;
8663;SDS011;4369;47.842;13.096;2023-02-26T00:13:36;7.57;;;6.03;;
8663;SDS011;4369;47.842;13.096;2023-02-26T00:16:05;7.93;;;6.17;;
8663;SDS011;4369;47.842;13.096;2023-02-26T00:18:40;6.00;;;5.13;;
8663;SDS011;4369;47.842;13.096;2023-02-26T00:21:07;6.27;;;4.60;;
8663;SDS011;4369;47.842;13.096;2023-02-26T00:23:41;4.23;;;3.83;;
8663;SDS011;4369;47.842;13.096;2023-02-26T00:26:09;5.90;;;4.43;;
8663;SDS011;4369;47.842;13.096;2023-02-26T00:28:36;4.87;;;4.20;;
8663;SDS011;4369;47.842;13.096;2023-02-26T00:31:04;4.50;;;3.90;;
8663;SDS011;4369;47.842;13.096;2023-02-26T00:33:32;3.93;;;3.63;;
8663;SDS011;4369;47.842;13.096;2023-02-26T00:36:01;4.00;;;3.57;;
8663;SDS011;4369;47.842;13.096;2023-02-26T00:38:38;3.33;;;3.13;;
8663;SDS011;4369;47.842;13.096;2023-02-26T00:41:10;3.97;;;3.60;;
8663;SDS011;4369;47.842;13.096;2023-02-26T00:43:39;3.90;;;3.30;;
8663;SDS011;4369;47.842;13.096;2023-02-26T00:46:09;4.10;;;3.17;;
8663;SDS011;4369;47.842;13.096;2023-02-26T00:48:47;3.73;;;2.80;;
8663;SDS011;4369;47.842;13.096;2023-02-26T00:51:25;3.00;;;2.80;;
8663;SDS011;4369;47.842;13.096;2023-02-26T00:53:58;3.53;;;2.93;;
8663;SDS011;4369;47.842;13.096;2023-02-26T00:56:30;2.83;;;2.63;;
8663;SDS011;4369;47.842;13.096;2023-02-26T00:58:57;3.13;;;2.90;;
8663;SDS011;4369;47.842;13.096;2023-02-26T01:01:24;2.93;;;2.43;;
8663;SDS011;4369;47.842;13.096;2023-02-26T01:03:51;2.20;;;2.03;;
8663;SDS011;4369;47.842;13.096;2023-02-26T01:06:19;1.70;;;1.60;;
8663;SDS011;4369;47.842;13.096;2023-02-26T01:08:51;1.77;;;1.67;;
8663;SDS011;4369;47.842;13.096;2023-02-26T01:11:23;1.63;;;1.53;;
8663;SDS011;4369;47.842;13.096;2023-02-26T01:13:50;1.57;;;1.43;;
8663;SDS011;4369;47.842;13.096;2023-02-26T01:16:19;1.60;;;1.50;;
8663;SDS011;4369;47.842;13.096;2023-02-26T01:18:51;1.87;;;1.50;;
8663;SDS011;4369;47.842;13.096;2023-02-26T01:21:24;2.37;;;1.70;;
8663;SDS011;4369;47.842;13.096;2023-02-26T01:23:57;2.40;;;2.20;;
8663;SDS011;4369;47.842;13.096;2023-02-26T01:26:27;2.73;;;2.30;;
8663;SDS011;4369;47.842;13.096;2023-02-26T01:28:55;2.70;;;2.50;;
8663;SDS011;4369;47.842;13.096;2023-02-26T01:31:25;3.07;;;2.80;;
8663;SDS011;4369;47.842;13.096;2023-02-26T01:34:01;3.50;;;3.20;;
8663;SDS011;4369;47.842;13.096;2023-02-26T01:36:32;4.67;;;4.07;;
8663;SDS011;4369;47.842;13.096;2023-02-26T01:39:07;4.20;;;3.90;;
8663;SDS011;4369;47.842;13.096;2023-02-26T01:41:42;4.43;;;4.03;;
8663;SDS011;4369;47.842;13.096;2023-02-26T01:44:14;4.57;;;4.17;;
8663;SDS011;4369;47.842;13.096;2023-02-26T01:46:54;4.30;;;3.90;;
8663;SDS011;4369;47.842;13.096;2023-02-26T01:49:27;4.33;;;3.93;;
8663;SDS011;4369;47.842;13.096;2023-02-26T01:51:55;3.70;;;3.40;;
8663;SDS011;4369;47.842;13.096;2023-02-26T01:54:27;4.10;;;3.43;;
8663;SDS011;4369;47.842;13.096;2023-02-26T01:56:56;3.60;;;3.30;;
8663;SDS011;4369;47.842;13.096;2023-02-26T01:59:29;3.50;;;3.20;;
8663;SDS011;4369;47.842;13.096;2023-02-26T02:01:57;3.67;;;3.37;;
8663;SDS011;4369;47.842;13.096;2023-02-26T02:04:25;4.00;;;3.60;;
8663;SDS011;4369;47.842;13.096;2023-02-26T02:06:52;3.23;;;2.93;;
8663;SDS011;4369;47.842;13.096;2023-02-26T02:09:20;3.50;;;3.30;;
8663;SDS011;4369;47.842;13.096;2023-02-26T02:12:06;3.23;;;3.03;;
8663;SDS011;4369;47.842;13.096;2023-02-26T02:14:42;3.23;;;3.00;;
8663;SDS011;4369;47.842;13.096;2023-02-26T02:17:21;2.80;;;2.60;;
8663;SDS011;4369;47.842;13.096;2023-02-26T02:26:08;3.30;;;3.00;;
8663;SDS011;4369;47.842;13.096;2023-02-26T02:28:58;3.23;;;2.90;;
8663;SDS011;4369;47.842;13.096;2023-02-26T02:31:42;2.57;;;2.37;;
8663;SDS011;4369;47.842;13.096;2023-02-26T02:34:15;2.57;;;2.37;;
8663;SDS011;4369;47.842;13.096;2023-02-26T02:36:47;2.67;;;2.47;;
8663;SDS011;4369;47.842;13.096;2023-02-26T02:39:21;3.00;;;2.70;;
8663;SDS011;4369;47.842;13.096;2023-02-26T02:41:54;2.90;;;2.70;;
8663;SDS011;4369;47.842;13.096;2023-02-26T02:44:24;2.73;;;2.53;;
8663;SDS011;4369;47.842;13.096;2023-02-26T02:46:55;2.90;;;2.70;;
8663;SDS011;4369;47.842;13.096;2023-02-26T02:49:26;2.63;;;2.43;;
8663;SDS011;4369;47.842;13.096;2023-02-26T02:51:58;2.60;;;2.40;;
8663;SDS011;4369;47.842;13.096;2023-02-26T02:54:37;3.07;;;2.60;;
8663;SDS011;4369;47.842;13.096;2023-02-26T02:57:10;2.67;;;2.47;;
8663;SDS011;4369;47.842;13.096;2023-02-26T02:59:43;2.87;;;2.67;;
8663;SDS011;4369;47.842;13.096;2023-02-26T03:02:14;3.23;;;2.30;;
8663;SDS011;4369;47.842;13.096;2023-02-26T03:04:44;2.40;;;2.30;;
8663;SDS011;4369;47.842;13.096;2023-02-26T03:07:11;2.67;;;2.47;;
8663;SDS011;4369;47.842;13.096;2023-02-26T03:09:39;2.33;;;2.20;;
8663;SDS011;4369;47.842;13.096;2023-02-26T03:12:06;2.77;;;2.57;;
8663;SDS011;4369;47.842;13.096;2023-02-26T03:14:33;2.50;;;2.30;;
8663;SDS011;4369;47.842;13.096;2023-02-26T03:17:02;2.77;;;2.57;;
8663;SDS011;4369;47.842;13.096;2023-02-26T03:19:39;2.40;;;2.20;;
8663;SDS011;4369;47.842;13.096;2023-02-26T03:22:16;2.93;;;2.20;;
8663;SDS011;4369;47.842;13.096;2023-02-26T03:24:49;3.07;;;2.73;;
8663;SDS011;4369;47.842;13.096;2023-02-26T03:27:20;2.63;;;2.43;;
8663;SDS011;4369;47.842;13.096;2023-02-26T03:29:52;2.60;;;2.40;;
8663;SDS011;4369;47.842;13.096;2023-02-26T03:32:22;2.70;;;2.50;;
8663;SDS011;4369;47.842;13.096;2023-02-26T03:34:54;3.03;;;2.80;;
8663;SDS011;4369;47.842;13.096;2023-02-26T03:37:30;2.90;;;2.70;;
8663;SDS011;4369;47.842;13.096;2023-02-26T03:40:02;2.90;;;2.70;;
8663;SDS011;4369;47.842;13.096;2023-02-26T03:42:35;2.60;;;2.40;;
8663;SDS011;4369;47.842;13.096;2023-02-26T03:45:07;2.57;;;2.37;;
8663;SDS011;4369;47.842;13.096;2023-02-26T03:47:38;2.90;;;2.70;;
8663;SDS011;4369;47.842;13.096;2023-02-26T03:50:10;3.13;;;2.93;;
8663;SDS011;4369;47.842;13.096;2023-02-26T03:52:42;2.80;;;2.60;;
8663;SDS011;4369;47.842;13.096;2023-02-26T03:55:12;4.50;;;2.70;;
8663;SDS011;4369;47.842;13.096;2023-02-26T03:57:42;3.93;;;2.83;;
8663;SDS011;4369;47.842;13.096;2023-02-26T04:00:10;3.07;;;2.80;;
8663;SDS011;4369;47.842;13.096;2023-02-26T04:02:39;2.93;;;2.73;;
8663;SDS011;4369;47.842;13.096;2023-02-26T04:05:11;3.10;;;2.80;;
8663;SDS011;4369;47.842;13.096;2023-02-26T04:07:40;3.13;;;2.83;;
8663;SDS011;4369;47.842;13.096;2023-02-26T04:10:08;3.20;;;3.00;;
8663;SDS011;4369;47.842;13.096;2023-02-26T04:12:36;2.90;;;2.67;;
8663;SDS011;4369;47.842;13.096;2023-02-26T04:15:03;3.07;;;2.80;;
8663;SDS011;4369;47.842;13.096;2023-02-26T04:17:30;3.13;;;2.83;;
8663;SDS011;4369;47.842;13.096;2023-02-26T04:19:57;2.83;;;2.60;;
8663;SDS011;4369;47.842;13.096;2023-02-26T04:22:26;2.70;;;2.50;;
8663;SDS011;4369;47.842;13.096;2023-02-26T04:24:53;3.03;;;2.80;;
8663;SDS011;4369;47.842;13.096;2023-02-26T04:27:19;3.20;;;3.00;;
8663;SDS011;4369;47.842;13.096;2023-02-26T04:29:46;2.90;;;2.70;;
8663;SDS011;4369;47.842;13.096;2023-02-26T04:32:13;3.33;;;3.03;;
8663;SDS011;4369;47.842;13.096;2023-02-26T04:34:40;3.70;;;3.40;;
8663;SDS011;4369;47.842;13.096;2023-02-26T04:37:07;3.40;;;3.10;;
8663;SDS011;4369;47.842;13.096;2023-02-26T04:39:35;3.20;;;3.00;;
8663;SDS011;4369;47.842;13.096;2023-02-26T04:42:02;3.17;;;2.93;;
8663;SDS011;4369;47.842;13.096;2023-02-26T04:44:29;3.27;;;2.90;;
8663;SDS011;4369;47.842;13.096;2023-02-26T04:46:56;3.90;;;3.30;;
8663;SDS011;4369;47.842;13.096;2023-02-26T04:49:23;3.57;;;3.20;;
8663;SDS011;4369;47.842;13.096;2023-02-26T04:51:50;3.70;;;3.40;;
8663;SDS011;4369;47.842;13.096;2023-02-26T04:54:18;4.37;;;3.43;;
8663;SDS011;4369;47.842;13.096;2023-02-26T04:56:46;3.70;;;3.40;;
8663;SDS011;4369;47.842;13.096;2023-02-26T04:59:13;7.17;;;3.53;;
8663;SDS011;4369;47.842;13.096;2023-02-26T05:01:40;4.03;;;3.63;;
8663;SDS011;4369;47.842;13.096;2023-02-26T05:04:07;3.63;;;3.33;;
8663;SDS011;4369;47.842;13.096;2023-02-26T05:06:33;5.83;;;3.60;;
8663;SDS011;4369;47.842;13.096;2023-02-26T05:09:00;3.63;;;3.33;;
8663;SDS011;4369;47.842;13.096;2023-02-26T05:11:27;4.00;;;3.70;;
8663;SDS011;4369;47.842;13.096;2023-02-26T05:13:55;6.00;;;4.60;;
8663;SDS011;4369;47.842;13.096;2023-02-26T05:16:22;4.20;;;3.73;;
8663;SDS011;4369;47.842;13.096;2023-02-26T05:18:49;4.73;;;3.77;;
8663;SDS011;4369;47.842;13.096;2023-02-26T05:21:16;4.93;;;4.00;;
8663;SDS011;4369;47.842;13.096;2023-02-26T05:23:43;5.17;;;4.30;;
8663;SDS011;4369;47.842;13.096;2023-02-26T05:26:10;5.43;;;4.93;;
8663;SDS011;4369;47.842;13.096;2023-02-26T05:28:36;4.73;;;3.90;;
8663;SDS011;4369;47.842;13.096;2023-02-26T05:31:05;4.73;;;3.90;;
8663;SDS011;4369;47.842;13.096;2023-02-26T05:33:32;5.27;;;3.97;;
8663;SDS011;4369;47.842;13.096;2023-02-26T05:35:59;3.80;;;3.50;;
8663;SDS011;4369;47.842;13.096;2023-02-26T05:38:25;3.83;;;3.53;;
8663;SDS011;4369;47.842;13.096;2023-02-26T05:40:54;4.00;;;3.70;;
8663;SDS011;4369;47.842;13.096;2023-02-26T05:43:22;4.07;;;3.70;;
8663;SDS011;4369;47.842;13.096;2023-02-26T05:45:49;4.37;;;3.80;;
8663;SDS011;4369;47.842;13.096;2023-02-26T05:48:17;4.37;;;3.77;;
8663;SDS011;4369;47.842;13.096;2023-02-26T05:50:44;5.77;;;3.43;;
8663;SDS011;4369;47.842;13.096;2023-02-26T05:53:11;5.17;;;4.23;;
8663;SDS011;4369;47.842;13.096;2023-02-26T05:55:38;4.00;;;3.60;;
8663;SDS011;4369;47.842;13.096;2023-02-26T05:58:05;3.80;;;3.50;;
8663;SDS011;4369;47.842;13.096;2023-02-26T06:00:32;4.00;;;3.60;;
8663;SDS011;4369;47.842;13.096;2023-02-26T06:02:59;6.33;;;4.97;;
8663;SDS011;4369;47.842;13.096;2023-02-26T06:05:27;6.27;;;5.13;;
8663;SDS011;4369;47.842;13.096;2023-02-26T06:07:54;4.87;;;4.47;;
8663;SDS011;4369;47.842;13.096;2023-02-26T06:10:21;5.10;;;4.60;;
8663;SDS011;4369;47.842;13.096;2023-02-26T06:12:47;4.50;;;4.10;;
8663;SDS011;4369;47.842;13.096;2023-02-26T06:15:14;5.23;;;4.73;;
8663;SDS011;4369;47.842;13.096;2023-02-26T06:17:41;6.33;;;4.73;;
8663;SDS011;4369;47.842;13.096;2023-02-26T06:20:08;5.47;;;4.50;;
8663;SDS011;4369;47.842;13.096;2023-02-26T06:22:40;4.47;;;4.07;;
8663;SDS011;4369;47.842;13.096;2023-02-26T06:25:07;4.33;;;3.93;;
8663;SDS011;4369;47.842;13.096;2023-02-26T06:27:34;4.20;;;3.90;;
8663;SDS011;4369;47.842;13.096;2023-02-26T06:30:01;3.90;;;3.60;;
8663;SDS011;4369;47.842;13.096;2023-02-26T06:32:28;3.70;;;3.40;;
8663;SDS011;4369;47.842;13.096;2023-02-26T06:34:54;4.70;;;4.20;;
8663;SDS011;4369;47.842;13.096;2023-02-26T06:37:21;4.00;;;3.70;;
8663;SDS011;4369;47.842;13.096;2023-02-26T06:39:49;3.87;;;3.53;;
8663;SDS011;4369;47.842;13.096;2023-02-26T06:42:16;4.13;;;3.53;;
8663;SDS011;4369;47.842;13.096;2023-02-26T06:44:43;4.10;;;3.73;;
8663;SDS011;4369;47.842;13.096;2023-02-26T06:47:10;5.10;;;4.07;;
8663;SDS011;4369;47.842;13.096;2023-02-26T06:49:37;4.10;;;3.70;;
8663;SDS011;4369;47.842;13.096;2023-02-26T06:52:04;4.53;;;4.13;;
8663;SDS011;4369;47.842;13.096;2023-02-26T06:54:31;5.67;;;5.00;;
8663;SDS011;4369;47.842;13.096;2023-02-26T06:56:59;6.00;;;5.33;;
8663;SDS011;4369;47.842;13.096;2023-02-26T06:59:27;4.50;;;4.10;;
8663;SDS011;4369;47.842;13.096;2023-02-26T07:01:54;6.70;;;4.20;;
8663;SDS011;4369;47.842;13.096;2023-02-26T07:04:21;4.07;;;3.70;;
8663;SDS011;4369;47.842;13.096;2023-02-26T07:06:48;9.73;;;4.80;;
8663;SDS011;4369;47.842;13.096;2023-02-26T07:09:14;4.83;;;4.30;;
8663;SDS011;4369;47.842;13.096;2023-02-26T07:11:43;5.73;;;4.60;;
8663;SDS011;4369;47.842;13.096;2023-02-26T07:14:12;5.60;;;4.50;;
8663;SDS011;4369;47.842;13.096;2023-02-26T07:16:39;7.40;;;4.87;;
8663;SDS011;4369;47.842;13.096;2023-02-26T07:19:06;7.13;;;4.10;;
8663;SDS011;4369;47.842;13.096;2023-02-26T07:21:32;8.63;;;5.03;;
8663;SDS011;4369;47.842;13.096;2023-02-26T07:23:59;6.90;;;4.43;;
8663;SDS011;4369;47.842;13.096;2023-02-26T07:26:26;9.03;;;4.83;;
8663;SDS011;4369;47.842;13.096;2023-02-26T07:28:53;10.53;;;5.03;;
8663;SDS011;4369;47.842;13.096;2023-02-26T07:31:21;4.53;;;4.13;;
8663;SDS011;4369;47.842;13.096;2023-02-26T07:33:49;4.90;;;4.37;;
8663;SDS011;4369;47.842;13.096;2023-02-26T07:36:15;7.07;;;4.23;;
8663;SDS011;4369;47.842;13.096;2023-02-26T07:38:42;6.37;;;5.10;;
8663;SDS011;4369;47.842;13.096;2023-02-26T07:41:09;5.37;;;4.53;;
8663;SDS011;4369;47.842;13.096;2023-02-26T07:43:36;4.57;;;4.17;;
8663;SDS011;4369;47.842;13.096;2023-02-26T07:46:03;5.10;;;3.53;;
8663;SDS011;4369;47.842;13.096;2023-02-26T07:48:31;3.90;;;3.60;;
8663;SDS011;4369;47.842;13.096;2023-02-26T07:50:59;3.73;;;3.43;;
8663;SDS011;4369;47.842;13.096;2023-02-26T07:53:25;3.40;;;3.10;;
8663;SDS011;4369;47.842;13.096;2023-02-26T07:55:52;3.97;;;3.57;;
8663;SDS011;4369;47.842;13.096;2023-02-26T07:58:19;3.80;;;3.50;;
8663;SDS011;4369;47.842;13.096;2023-02-26T08:00:46;4.00;;;3.70;;
8663;SDS011;4369;47.842;13.096;2023-02-26T08:03:13;5.23;;;4.53;;
8663;SDS011;4369;47.842;13.096;2023-02-26T08:05:41;13.63;;;5.03;;
8663;SDS011;4369;47.842;13.096;2023-02-26T08:08:08;9.03;;;4.63;;
8663;SDS011;4369;47.842;13.096;2023-02-26T08:10:36;11.93;;;5.20;;
8663;SDS011;4369;47.842;13.096;2023-02-26T08:13:05;9.67;;;4.50;;
8663;SDS011;4369;47.842;13.096;2023-02-26T08:15:32;14.38;;;5.13;;
8663;SDS011;4369;47.842;13.096;2023-02-26T08:17:59;12.77;;;5.27;;
8663;SDS011;4369;47.842;13.096;2023-02-26T08:20:26;5.83;;;4.30;;
8663;SDS011;4369;47.842;13.096;2023-02-26T08:22:54;4.17;;;3.83;;
8663;SDS011;4369;47.842;13.096;2023-02-26T08:25:21;5.33;;;4.20;;
8663;SDS011;4369;47.842;13.096;2023-02-26T08:27:48;4.27;;;3.87;;
8663;SDS011;4369;47.842;13.096;2023-02-26T08:30:15;4.87;;;4.23;;
8663;SDS011;4369;47.842;13.096;2023-02-26T08:32:42;4.40;;;3.70;;
8663;SDS011;4369;47.842;13.096;2023-02-26T08:35:10;4.17;;;3.77;;
8663;SDS011;4369;47.842;13.096;2023-02-26T08:37:37;6.53;;;4.23;;
8663;SDS011;4369;47.842;13.096;2023-02-26T08:40:06;4.87;;;4.30;;
8663;SDS011;4369;47.842;13.096;2023-02-26T08:42:35;5.47;;;4.97;;
8663;SDS011;4369;47.842;13.096;2023-02-26T08:45:02;6.13;;;5.00;;
8663;SDS011;4369;47.842;13.096;2023-02-26T08:47:29;8.53;;;5.73;;
8663;SDS011;4369;47.842;13.096;2023-02-26T08:49:56;5.07;;;4.57;;
8663;SDS011;4369;47.842;13.096;2023-02-26T08:52:23;7.93;;;4.17;;
8663;SDS011;4369;47.842;13.096;2023-02-26T08:54:50;4.70;;;4.30;;
8663;SDS011;4369;47.842;13.096;2023-02-26T08:57:19;4.37;;;3.97;;
8663;SDS011;4369;47.842;13.096;2023-02-26T08:59:46;4.67;;;3.90;;
8663;SDS011;4369;47.842;13.096;2023-02-26T09:02:12;4.67;;;4.27;;
8663;SDS011;4369;47.842;13.096;2023-02-26T09:04:39;5.00;;;4.43;;
8663;SDS011;4369;47.842;13.096;2023-02-26T09:07:06;4.53;;;3.87;;
8663;SDS011;4369;47.842;13.096;2023-02-26T09:09:33;9.10;;;4.40;;
8663;SDS011;4369;47.842;13.096;2023-02-26T09:12:00;6.27;;;4.50;;
8663;SDS011;4369;47.842;13.096;2023-02-26T09:14:28;4.27;;;3.97;;
8663;SDS011;4369;47.842;13.096;2023-02-26T09:16:55;4.10;;;3.80;;
8663;SDS011;4369;47.842;13.096;2023-02-26T09:19:22;4.77;;;4.03;;
8663;SDS011;4369;47.842;13.096;2023-02-26T09:21:49;5.10;;;4.43;;
8663;SDS011;4369;47.842;13.096;2023-02-26T09:24:15;4.40;;;4.10;;
8663;SDS011;4369;47.842;13.096;2023-02-26T09:26:42;5.17;;;4.30;;
8663;SDS011;4369;47.842;13.096;2023-02-26T09:29:09;4.57;;;3.97;;
8663;SDS011;4369;47.842;13.096;2023-02-26T09:31:38;4.93;;;3.97;;
8663;SDS011;4369;47.842;13.096;2023-02-26T09:34:05;4.27;;;3.80;;
8663;SDS011;4369;47.842;13.096;2023-02-26T09:36:32;5.00;;;4.20;;
8663;SDS011;4369;47.842;13.096;2023-02-26T09:38:59;7.60;;;4.83;;
8663;SDS011;4369;47.842;13.096;2023-02-26T09:41:27;4.93;;;4.43;;
8663;SDS011;4369;47.842;13.096;2023-02-26T09:46:49;6.47;;;5.37;;
8663;SDS011;4369;47.842;13.096;2023-02-26T09:49:24;4.93;;;4.40;;
8663;SDS011;4369;47.842;13.096;2023-02-26T09:51:58;8.87;;;4.67;;
8663;SDS011;4369;47.842;13.096;2023-02-26T09:54:27;4.40;;;4.00;;
8663;SDS011;4369;47.842;13.096;2023-02-26T09:56:58;5.50;;;3.80;;
8663;SDS011;4369;47.842;13.096;2023-02-26T09:59:26;4.17;;;3.87;;
8663;SDS011;4369;47.842;13.096;2023-02-26T10:01:59;3.80;;;3.50;;
8663;SDS011;4369;47.842;13.096;2023-02-26T10:04:38;5.23;;;4.00;;
8663;SDS011;4369;47.842;13.096;2023-02-26T10:07:16;4.27;;;3.43;;
8663;SDS011;4369;47.842;13.096;2023-02-26T10:09:57;3.87;;;3.57;;
8663;SDS011;4369;47.842;13.096;2023-02-26T10:12:32;5.37;;;4.17;;
8663;SDS011;4369;47.842;13.096;2023-02-26T10:15:02;5.63;;;4.00;;
8663;SDS011;4369;47.842;13.096;2023-02-26T10:17:37;7.53;;;4.53;;
8663;SDS011;4369;47.842;13.096;2023-02-26T10:20:13;5.57;;;4.27;;
8663;SDS011;4369;47.842;13.096;2023-02-26T10:22:47;5.50;;;4.37;;
8663;SDS011;4369;47.842;13.096;2023-02-26T10:25:24;4.13;;;3.50;;
8663;SDS011;4369;47.842;13.096;2023-02-26T10:27:57;5.77;;;3.70;;
8663;SDS011;4369;47.842;13.096;2023-02-26T10:30:33;2.80;;;2.60;;
8663;SDS011;4369;47.842;13.096;2023-02-26T10:33:06;3.33;;;3.03;;
8663;SDS011;4369;47.842;13.096;2023-02-26T10:35:44;2.70;;;2.50;;
8663;SDS011;4369;47.842;13.096;2023-02-26T10:38:17;2.87;;;2.67;;
8663;SDS011;4369;47.842;13.096;2023-02-26T10:40:49;2.60;;;2.40;;
8663;SDS011;4369;47.842;13.096;2023-02-26T10:43:20;3.33;;;2.70;;
8663;SDS011;4369;47.842;13.096;2023-02-26T10:45:53;1.97;;;1.83;;
8663;SDS011;4369;47.842;13.096;2023-02-26T10:48:41;2.13;;;1.93;;
8663;SDS011;4369;47.842;13.096;2023-02-26T10:51:18;1.47;;;1.47;;
8663;SDS011;4369;47.842;13.096;2023-02-26T10:53:47;2.17;;;2.07;;
8663;SDS011;4369;47.842;13.096;2023-02-26T10:56:19;2.33;;;2.20;;
8663;SDS011;4369;47.842;13.096;2023-02-26T10:58:49;4.07;;;2.57;;
8663;SDS011;4369;47.842;13.096;2023-02-26T11:01:19;3.53;;;2.90;;
8663;SDS011;4369;47.842;13.096;2023-02-26T11:03:52;3.97;;;3.13;;
8663;SDS011;4369;47.842;13.096;2023-02-26T11:06:21;2.97;;;2.70;;
8663;SDS011;4369;47.842;13.096;2023-02-26T11:08:53;5.47;;;2.73;;
8663;SDS011;4369;47.842;13.096;2023-02-26T11:11:36;4.17;;;3.87;;
8663;SDS011;4369;47.842;13.096;2023-02-26T11:14:06;4.70;;;3.90;;
8663;SDS011;4369;47.842;13.096;2023-02-26T11:16:34;3.97;;;3.67;;
8663;SDS011;4369;47.842;13.096;2023-02-26T11:19:10;4.07;;;3.57;;
8663;SDS011;4369;47.842;13.096;2023-02-26T11:21:39;4.57;;;3.60;;
8663;SDS011;4369;47.842;13.096;2023-02-26T11:24:10;4.57;;;4.07;;
8663;SDS011;4369;47.842;13.096;2023-02-26T11:26:45;5.80;;;5.20;;
8663;SDS011;4369;47.842;13.096;2023-02-26T11:29:14;5.00;;;4.40;;
8663;SDS011;4369;47.842;13.096;2023-02-26T11:31:46;4.23;;;3.83;;
8663;SDS011;4369;47.842;13.096;2023-02-26T11:34:15;4.17;;;3.70;;
8663;SDS011;4369;47.842;13.096;2023-02-26T11:36:46;3.07;;;2.87;;
8663;SDS011;4369;47.842;13.096;2023-02-26T11:39:14;2.97;;;2.77;;
8663;SDS011;4369;47.842;13.096;2023-02-26T11:41:44;3.10;;;2.90;;
8663;SDS011;4369;47.842;13.096;2023-02-26T11:44:14;4.43;;;3.57;;
8663;SDS011;4369;47.842;13.096;2023-02-26T11:46:45;4.17;;;3.80;;
8663;SDS011;4369;47.842;13.096;2023-02-26T11:49:19;4.37;;;3.77;;
8663;SDS011;4369;47.842;13.096;2023-02-26T11:51:59;2.53;;;2.33;;
8663;SDS011;4369;47.842;13.096;2023-02-26T11:54:30;2.10;;;1.83;;
8663;SDS011;4369;47.842;13.096;2023-02-26T11:57:01;2.07;;;1.97;;
8663;SDS011;4369;47.842;13.096;2023-02-26T11:59:32;2.10;;;1.90;;
8663;SDS011;4369;47.842;13.096;2023-02-26T12:02:00;3.13;;;2.50;;
8663;SDS011;4369;47.842;13.096;2023-02-26T12:04:32;3.10;;;2.80;;
8663;SDS011;4369;47.842;13.096;2023-02-26T12:06:58;4.23;;;2.90;;
8663;SDS011;4369;47.842;13.096;2023-02-26T12:09:25;4.00;;;3.53;;
8663;SDS011;4369;47.842;13.096;2023-02-26T12:11:59;4.47;;;3.60;;
8663;SDS011;4369;47.842;13.096;2023-02-26T12:17:44;4.27;;;3.60;;
8663;SDS011;4369;47.842;13.096;2023-02-26T12:20:31;4.83;;;3.30;;
8663;SDS011;4369;47.842;13.096;2023-02-26T12:23:10;3.57;;;3.27;;
8663;SDS011;4369;47.842;13.096;2023-02-26T12:25:57;3.50;;;3.20;;
8663;SDS011;4369;47.842;13.096;2023-02-26T12:28:38;3.30;;;3.00;;
8663;SDS011;4369;47.842;13.096;2023-02-26T12:34:45;2.90;;;2.70;;
8663;SDS011;4369;47.842;13.096;2023-02-26T12:37:41;3.40;;;2.80;;
8663;SDS011;4369;47.842;13.096;2023-02-26T12:40:21;3.20;;;2.90;;
8663;SDS011;4369;47.842;13.096;2023-02-26T12:43:05;1.97;;;1.80;;
8663;SDS011;4369;47.842;13.096;2023-02-26T12:45:39;2.40;;;2.20;;
8663;SDS011;4369;47.842;13.096;2023-02-26T12:48:23;2.00;;;1.90;;
8663;SDS011;4369;47.842;13.096;2023-02-26T12:51:04;3.23;;;2.10;;
8663;SDS011;4369;47.842;13.096;2023-02-26T12:53:54;2.07;;;1.97;;
8663;SDS011;4369;47.842;13.096;2023-02-26T12:56:47;1.87;;;1.77;;
8663;SDS011;4369;47.842;13.096;2023-02-26T12:59:43;1.90;;;1.80;;
8663;SDS011;4369;47.842;13.096;2023-02-26T13:02:37;2.08;;;1.90;;
8663;SDS011;4369;47.842;13.096;2023-02-26T13:05:39;1.92;;;1.83;;
8663;SDS011;4369;47.842;13.096;2023-02-26T13:08:16;2.08;;;1.98;;
8663;SDS011;4369;47.842;13.096;2023-02-26T13:10:52;2.00;;;1.90;;
8663;SDS011;4369;47.842;13.096;2023-02-26T13:13:32;2.38;;;2.17;;
8663;SDS011;4369;47.842;13.096;2023-02-26T13:16:14;2.10;;;1.90;;
8663;SDS011;4369;47.842;13.096;2023-02-26T13:19:00;4.38;;;2.70;;
8663;SDS011;4369;47.842;13.096;2023-02-26T13:21:32;2.00;;;1.90;;
8663;SDS011;4369;47.842;13.096;2023-02-26T13:24:04;1.73;;;1.63;;
8663;SDS011;4369;47.842;13.096;2023-02-26T13:26:36;1.60;;;1.60;;
8663;SDS011;4369;47.842;13.096;2023-02-26T13:29:08;1.60;;;1.50;;
8663;SDS011;4369;47.842;13.096;2023-02-26T13:31:40;1.70;;;1.60;;
8663;SDS011;4369;47.842;13.096;2023-02-26T13:34:11;1.55;;;1.55;;
8663;SDS011;4369;47.842;13.096;2023-02-26T13:36:42;1.70;;;1.58;;
8663;SDS011;4369;47.842;13.096;2023-02-26T13:39:18;1.15;;;1.15;;
8663;SDS011;4369;47.842;13.096;2023-02-26T13:41:59;1.50;;;1.40;;
8663;SDS011;4369;47.842;13.096;2023-02-26T13:44:38;1.70;;;1.60;;
8663;SDS011;4369;47.842;13.096;2023-02-26T13:47:19;1.40;;;1.40;;
8663;SDS011;4369;47.842;13.096;2023-02-26T13:50:14;2.17;;;1.80;;
8663;SDS011;4369;47.842;13.096;2023-02-26T13:52:49;1.90;;;1.80;;
8663;SDS011;4369;47.842;13.096;2023-02-26T13:58:27;1.67;;;1.57;;
8663;SDS011;4369;47.842;13.096;2023-02-26T14:01:03;2.20;;;2.00;;
8663;SDS011;4369;47.842;13.096;2023-02-26T14:03:33;1.90;;;1.80;;
8663;SDS011;4369;47.842;13.096;2023-02-26T14:06:09;1.50;;;1.40;;
8663;SDS011;4369;47.842;13.096;2023-02-26T14:08:49;2.00;;;1.90;;
8663;SDS011;4369;47.842;13.096;2023-02-26T14:11:37;1.57;;;1.53;;
8663;SDS011;4369;47.842;13.096;2023-02-26T14:14:15;1.20;;;1.20;;
8663;SDS011;4369;47.842;13.096;2023-02-26T14:16:47;1.17;;;1.17;;
8663;SDS011;4369;47.842;13.096;2023-02-26T14:19:20;1.37;;;1.27;;
8663;SDS011;4369;47.842;13.096;2023-02-26T14:21:51;1.40;;;1.33;;
8663;SDS011;4369;47.842;13.096;2023-02-26T14:24:22;2.10;;;1.90;;
8663;SDS011;4369;47.842;13.096;2023-02-26T14:27:06;1.70;;;1.60;;
8663;SDS011;4369;47.842;13.096;2023-02-26T14:30:00;5.20;;;1.80;;
8663;SDS011;4369;47.842;13.096;2023-02-26T14:32:31;1.53;;;1.43;;
8663;SDS011;4369;47.842;13.096;2023-02-26T14:35:03;1.60;;;1.20;;
8663;SDS011;4369;47.842;13.096;2023-02-26T14:37:34;1.30;;;1.30;;
8663;SDS011;4369;47.842;13.096;2023-02-26T14:40:09;1.90;;;1.70;;
8663;SDS011;4369;47.842;13.096;2023-02-26T14:42:40;1.70;;;1.60;;
8663;SDS011;4369;47.842;13.096;2023-02-26T14:45:17;1.80;;;1.70;;
8663;SDS011;4369;47.842;13.096;2023-02-26T14:47:51;2.30;;;2.10;;
8663;SDS011;4369;47.842;13.096;2023-02-26T14:50:19;1.87;;;1.77;;
8663;SDS011;4369;47.842;13.096;2023-02-26T14:52:55;3.80;;;3.00;;
8663;SDS011;4369;47.842;13.096;2023-02-26T14:55:45;2.23;;;2.03;;
8663;SDS011;4369;47.842;13.096;2023-02-26T14:58:32;3.73;;;2.53;;
8663;SDS011;4369;47.842;13.096;2023-02-26T15:01:17;4.63;;;3.07;;
8663;SDS011;4369;47.842;13.096;2023-02-26T15:04:01;1.80;;;1.70;;
8663;SDS011;4369;47.842;13.096;2023-02-26T15:06:58;1.67;;;1.57;;
8663;SDS011;4369;47.842;13.096;2023-02-26T15:09:38;1.93;;;1.77;;
8663;SDS011;4369;47.842;13.096;2023-02-26T15:12:18;2.00;;;1.90;;
8663;SDS011;4369;47.842;13.096;2023-02-26T15:17:49;3.83;;;3.20;;
8663;SDS011;4369;47.842;13.096;2023-02-26T15:20:29;5.97;;;4.30;;
8663;SDS011;4369;47.842;13.096;2023-02-26T15:23:11;6.63;;;3.30;;
8663;SDS011;4369;47.842;13.096;2023-02-26T15:25:50;4.87;;;3.20;;
8663;SDS011;4369;47.842;13.096;2023-02-26T15:28:31;2.70;;;2.50;;
8663;SDS011;4369;47.842;13.096;2023-02-26T15:31:01;2.87;;;2.67;;
8663;SDS011;4369;47.842;13.096;2023-02-26T15:33:31;2.70;;;2.50;;
8663;SDS011;4369;47.842;13.096;2023-02-26T15:35:59;3.30;;;2.13;;
8663;SDS011;4369;47.842;13.096;2023-02-26T15:38:36;4.70;;;3.37;;
8663;SDS011;4369;47.842;13.096;2023-02-26T15:41:06;5.00;;;3.33;;
8663;SDS011;4369;47.842;13.096;2023-02-26T15:43:33;2.97;;;2.70;;
8663;SDS011;4369;47.842;13.096;2023-02-26T15:46:01;5.40;;;4.57;;
8663;SDS011;4369;47.842;13.096;2023-02-26T15:48:29;5.17;;;3.93;;